sensor_id;sensor_type;location;lat;lon;timestamp;temperature;humidity
12276;DHT22;6200;48.144;11.424;2024-02-21T00:00:10;5.10;99.90
12276;DHT22;6200;48.144;11.424;2024-02-21T00:02:37;5.10;99.90
12276;DHT22;6200;48.144;11.424;2024-02-21T00:05:02;5.10;99.90
12276;DHT22;6200;48.144;11.424;2024-02-21T00:07:28;5.10;99.90
12276;DHT22;6200;48.144;11.424;2024-02-21T00:09:53;5.10;99.90
12276;DHT22;6200;48.144;11.424;2024-02-21T00:12:19;5.10;99.90
12276;DHT22;6200;48.144;11.424;2024-02-21T00:14:45;5.10;99.90
12276;DHT22;6200;48.144;11.424;2024-02-21T00:17:10;5.10;99.90
12276;DHT22;6200;48.144;11.424;2024-02-21T00:19:36;5.20;99.90
12276;DHT22;6200;48.144;11.424;2024-02-21T00:22:01;5.20;99.90
12276;DHT22;6200;48.144;11.424;2024-02-21T00:24:27;5.20;99.90
12276;DHT22;6200;48.144;11.424;2024-02-21T00:26:54;5.30;99.90
12276;DHT22;6200;48.144;11.424;2024-02-21T00:29:19;5.30;99.90
12276;DHT22;6200;48.144;11.424;2024-02-21T00:31:45;5.30;99.90
12276;DHT22;6200;48.144;11.424;2024-02-21T00:34:10;5.30;99.90
12276;DHT22;6200;48.144;11.424;2024-02-21T00:36:38;5.30;99.90
12276;DHT22;6200;48.144;11.424;2024-02-21T00:39:03;5.20;99.90
12276;DHT22;6200;48.144;11.424;2024-02-21T00:41:29;5.20;99.90
12276;DHT22;6200;48.144;11.424;2024-02-21T00:43:55;5.10;99.90
12276;DHT22;6200;48.144;11.424;2024-02-21T00:46:20;5.20;99.90
12276;DHT22;6200;48.144;11.424;2024-02-21T00:48:46;5.10;99.90
12276;DHT22;6200;48.144;11.424;2024-02-21T00:51:12;5.10;99.90
12276;DHT22;6200;48.144;11.424;2024-02-21T00:53:38;5.10;99.90
12276;DHT22;6200;48.144;11.424;2024-02-21T00:56:05;5.10;99.90
12276;DHT22;6200;48.144;11.424;2024-02-21T00:58:30;5.10;99.90
12276;DHT22;6200;48.144;11.424;2024-02-21T01:00:56;5.20;99.90
12276;DHT22;6200;48.144;11.424;2024-02-21T01:03:21;5.20;99.90
12276;DHT22;6200;48.144;11.424;2024-02-21T01:05:47;5.10;99.90
12276;DHT22;6200;48.144;11.424;2024-02-21T01:08:12;5.10;99.90
12276;DHT22;6200;48.144;11.424;2024-02-21T01:10:38;4.80;99.90
12276;DHT22;6200;48.144;11.424;2024-02-21T01:13:04;5.20;99.90
12276;DHT22;6200;48.144;11.424;2024-02-21T01:15:29;5.20;99.90
12276;DHT22;6200;48.144;11.424;2024-02-21T01:17:55;5.20;99.90
12276;DHT22;6200;48.144;11.424;2024-02-21T01:20:21;5.10;99.90
12276;DHT22;6200;48.144;11.424;2024-02-21T01:22:47;5.10;99.90
12276;DHT22;6200;48.144;11.424;2024-02-21T01:25:12;5.10;99.90
12276;DHT22;6200;48.144;11.424;2024-02-21T01:27:38;5.10;99.90
12276;DHT22;6200;48.144;11.424;2024-02-21T01:30:04;5.10;99.90
12276;DHT22;6200;48.144;11.424;2024-02-21T01:32:31;5.10;99.90
12276;DHT22;6200;48.144;11.424;2024-02-21T01:34:56;5.00;99.90
12276;DHT22;6200;48.144;11.424;2024-02-21T01:37:22;5.10;99.90
12276;DHT22;6200;48.144;11.424;2024-02-21T01:39:47;5.00;99.90
12276;DHT22;6200;48.144;11.424;2024-02-21T01:42:14;5.00;99.90
12276;DHT22;6200;48.144;11.424;2024-02-21T01:44:40;5.10;99.90
12276;DHT22;6200;48.144;11.424;2024-02-21T01:47:07;5.10;99.90
12276;DHT22;6200;48.144;11.424;2024-02-21T01:49:33;5.00;99.90
12276;DHT22;6200;48.144;11.424;2024-02-21T01:51:59;5.00;99.90
12276;DHT22;6200;48.144;11.424;2024-02-21T01:54:25;5.00;99.90
12276;DHT22;6200;48.144;11.424;2024-02-21T01:56:54;4.90;99.90
12276;DHT22;6200;48.144;11.424;2024-02-21T01:59:20;5.00;99.90
12276;DHT22;6200;48.144;11.424;2024-02-21T02:01:46;4.90;99.90
12276;DHT22;6200;48.144;11.424;2024-02-21T02:04:13;4.90;99.90
12276;DHT22;6200;48.144;11.424;2024-02-21T02:06:39;5.00;99.90
12276;DHT22;6200;48.144;11.424;2024-02-21T02:09:05;5.00;99.90
12276;DHT22;6200;48.144;11.424;2024-02-21T02:11:32;5.00;99.90
12276;DHT22;6200;48.144;11.424;2024-02-21T02:13:57;4.90;99.90
12276;DHT22;6200;48.144;11.424;2024-02-21T02:16:23;5.00;99.90
12276;DHT22;6200;48.144;11.424;2024-02-21T02:18:48;4.90;99.90
12276;DHT22;6200;48.144;11.424;2024-02-21T02:21:24;4.90;99.90
12276;DHT22;6200;48.144;11.424;2024-02-21T02:23:52;4.90;99.90
12276;DHT22;6200;48.144;11.424;2024-02-21T02:26:18;4.90;99.90
12276;DHT22;6200;48.144;11.424;2024-02-21T02:28:43;4.90;99.90
12276;DHT22;6200;48.144;11.424;2024-02-21T02:31:09;4.90;99.90
12276;DHT22;6200;48.144;11.424;2024-02-21T02:33:34;4.90;99.90
12276;DHT22;6200;48.144;11.424;2024-02-21T02:36:00;4.90;99.90
12276;DHT22;6200;48.144;11.424;2024-02-21T02:38:25;4.90;99.90
12276;DHT22;6200;48.144;11.424;2024-02-21T02:40:51;4.90;99.90
12276;DHT22;6200;48.144;11.424;2024-02-21T02:43:16;5.00;99.90
12276;DHT22;6200;48.144;11.424;2024-02-21T02:45:42;5.00;99.90
12276;DHT22;6200;48.144;11.424;2024-02-21T02:48:08;5.00;99.90
12276;DHT22;6200;48.144;11.424;2024-02-21T02:50:33;5.00;99.90
12276;DHT22;6200;48.144;11.424;2024-02-21T02:52:59;5.00;99.90
12276;DHT22;6200;48.144;11.424;2024-02-21T02:55:24;5.00;99.90
12276;DHT22;6200;48.144;11.424;2024-02-21T02:57:51;5.00;99.90
12276;DHT22;6200;48.144;11.424;2024-02-21T03:00:17;5.00;99.90
12276;DHT22;6200;48.144;11.424;2024-02-21T03:02:44;5.00;99.90
12276;DHT22;6200;48.144;11.424;2024-02-21T03:05:13;5.00;99.90
12276;DHT22;6200;48.144;11.424;2024-02-21T03:07:40;5.00;99.90
12276;DHT22;6200;48.144;11.424;2024-02-21T03:10:06;5.00;99.90
12276;DHT22;6200;48.144;11.424;2024-02-21T03:12:31;5.00;99.90
12276;DHT22;6200;48.144;11.424;2024-02-21T03:14:57;5.00;99.90
12276;DHT22;6200;48.144;11.424;2024-02-21T03:17:23;5.00;99.90
12276;DHT22;6200;48.144;11.424;2024-02-21T03:19:49;5.00;99.90
12276;DHT22;6200;48.144;11.424;2024-02-21T03:22:15;5.00;99.90
12276;DHT22;6200;48.144;11.424;2024-02-21T03:24:41;5.00;99.90
12276;DHT22;6200;48.144;11.424;2024-02-21T03:27:06;5.00;99.90
12276;DHT22;6200;48.144;11.424;2024-02-21T03:29:32;5.00;99.90
12276;DHT22;6200;48.144;11.424;2024-02-21T03:31:57;5.00;99.90
12276;DHT22;6200;48.144;11.424;2024-02-21T03:34:23;5.00;99.90
12276;DHT22;6200;48.144;11.424;2024-02-21T03:36:48;5.10;99.90
12276;DHT22;6200;48.144;11.424;2024-02-21T03:39:14;5.10;99.90
12276;DHT22;6200;48.144;11.424;2024-02-21T03:41:39;5.10;99.90
12276;DHT22;6200;48.144;11.424;2024-02-21T03:44:05;5.10;99.90
12276;DHT22;6200;48.144;11.424;2024-02-21T03:46:30;5.10;99.90
12276;DHT22;6200;48.144;11.424;2024-02-21T03:48:57;5.20;99.90
12276;DHT22;6200;48.144;11.424;2024-02-21T03:51:22;5.20;99.90
12276;DHT22;6200;48.144;11.424;2024-02-21T03:53:48;5.20;99.90
12276;DHT22;6200;48.144;11.424;2024-02-21T03:56:13;5.10;99.90
12276;DHT22;6200;48.144;11.424;2024-02-21T03:58:39;5.10;99.90
12276;DHT22;6200;48.144;11.424;2024-02-21T04:01:05;5.10;99.90
12276;DHT22;6200;48.144;11.424;2024-02-21T04:03:30;5.10;99.90
12276;DHT22;6200;48.144;11.424;2024-02-21T04:05:56;5.10;99.90
12276;DHT22;6200;48.144;11.424;2024-02-21T04:08:22;5.10;99.90
12276;DHT22;6200;48.144;11.424;2024-02-21T04:10:48;5.10;99.90
12276;DHT22;6200;48.144;11.424;2024-02-21T04:13:14;5.10;99.90
12276;DHT22;6200;48.144;11.424;2024-02-21T04:15:39;5.10;99.90
12276;DHT22;6200;48.144;11.424;2024-02-21T04:18:05;5.10;99.90
12276;DHT22;6200;48.144;11.424;2024-02-21T04:20:30;5.00;99.90
12276;DHT22;6200;48.144;11.424;2024-02-21T04:22:56;5.00;99.90
12276;DHT22;6200;48.144;11.424;2024-02-21T04:25:22;5.00;99.90
12276;DHT22;6200;48.144;11.424;2024-02-21T04:27:47;4.90;99.90
12276;DHT22;6200;48.144;11.424;2024-02-21T04:30:13;4.80;99.90
12276;DHT22;6200;48.144;11.424;2024-02-21T04:32:39;4.80;99.90
12276;DHT22;6200;48.144;11.424;2024-02-21T04:35:06;4.80;99.90
12276;DHT22;6200;48.144;11.424;2024-02-21T04:37:32;4.80;99.90
12276;DHT22;6200;48.144;11.424;2024-02-21T04:39:57;4.80;99.90
12276;DHT22;6200;48.144;11.424;2024-02-21T04:42:23;4.80;99.90
12276;DHT22;6200;48.144;11.424;2024-02-21T04:44:48;4.80;99.90
12276;DHT22;6200;48.144;11.424;2024-02-21T04:47:14;4.80;99.90
12276;DHT22;6200;48.144;11.424;2024-02-21T04:49:39;4.80;99.90
12276;DHT22;6200;48.144;11.424;2024-02-21T04:52:05;4.70;99.90
12276;DHT22;6200;48.144;11.424;2024-02-21T04:54:31;4.70;99.90
12276;DHT22;6200;48.144;11.424;2024-02-21T04:56:56;4.60;99.90
12276;DHT22;6200;48.144;11.424;2024-02-21T04:59:22;4.50;99.90
12276;DHT22;6200;48.144;11.424;2024-02-21T05:01:47;4.50;99.90
12276;DHT22;6200;48.144;11.424;2024-02-21T05:04:13;4.40;99.90
12276;DHT22;6200;48.144;11.424;2024-02-21T05:06:42;4.40;99.90
12276;DHT22;6200;48.144;11.424;2024-02-21T05:09:08;4.40;99.90
12276;DHT22;6200;48.144;11.424;2024-02-21T05:11:35;4.40;99.90
12276;DHT22;6200;48.144;11.424;2024-02-21T05:14:00;4.40;99.90
12276;DHT22;6200;48.144;11.424;2024-02-21T05:16:26;4.30;99.90
12276;DHT22;6200;48.144;11.424;2024-02-21T05:18:51;4.30;99.90
12276;DHT22;6200;48.144;11.424;2024-02-21T05:21:17;4.30;99.90
12276;DHT22;6200;48.144;11.424;2024-02-21T05:23:42;4.20;99.90
12276;DHT22;6200;48.144;11.424;2024-02-21T05:26:08;4.20;99.90
12276;DHT22;6200;48.144;11.424;2024-02-21T05:28:34;4.20;99.90
12276;DHT22;6200;48.144;11.424;2024-02-21T05:31:00;4.20;99.90
12276;DHT22;6200;48.144;11.424;2024-02-21T05:33:26;4.10;99.90
12276;DHT22;6200;48.144;11.424;2024-02-21T05:35:51;4.20;99.90
12276;DHT22;6200;48.144;11.424;2024-02-21T05:38:17;4.10;99.90
12276;DHT22;6200;48.144;11.424;2024-02-21T05:40:44;4.10;99.90
12276;DHT22;6200;48.144;11.424;2024-02-21T05:43:09;4.10;99.90
12276;DHT22;6200;48.144;11.424;2024-02-21T05:45:35;4.10;99.90
12276;DHT22;6200;48.144;11.424;2024-02-21T05:48:01;4.10;99.90
12276;DHT22;6200;48.144;11.424;2024-02-21T05:50:28;4.10;99.90
12276;DHT22;6200;48.144;11.424;2024-02-21T05:52:57;4.10;99.90
12276;DHT22;6200;48.144;11.424;2024-02-21T05:55:22;4.10;99.90
12276;DHT22;6200;48.144;11.424;2024-02-21T05:57:48;4.10;99.90
12276;DHT22;6200;48.144;11.424;2024-02-21T06:00:14;4.20;99.90
12276;DHT22;6200;48.144;11.424;2024-02-21T06:02:41;4.00;99.90
12276;DHT22;6200;48.144;11.424;2024-02-21T06:05:07;4.00;99.90
12276;DHT22;6200;48.144;11.424;2024-02-21T06:07:33;3.90;99.90
12276;DHT22;6200;48.144;11.424;2024-02-21T06:10:00;4.00;99.90
12276;DHT22;6200;48.144;11.424;2024-02-21T06:12:25;4.00;99.90
12276;DHT22;6200;48.144;11.424;2024-02-21T06:14:52;4.00;99.90
12276;DHT22;6200;48.144;11.424;2024-02-21T06:17:17;4.00;99.90
12276;DHT22;6200;48.144;11.424;2024-02-21T06:19:43;4.00;99.90
12276;DHT22;6200;48.144;11.424;2024-02-21T06:22:09;4.00;99.90
12276;DHT22;6200;48.144;11.424;2024-02-21T06:24:35;4.00;99.90
12276;DHT22;6200;48.144;11.424;2024-02-21T06:27:05;4.00;99.90
12276;DHT22;6200;48.144;11.424;2024-02-21T06:29:33;4.00;99.90
12276;DHT22;6200;48.144;11.424;2024-02-21T06:32:00;4.00;99.90
12276;DHT22;6200;48.144;11.424;2024-02-21T06:34:25;4.00;99.90
12276;DHT22;6200;48.144;11.424;2024-02-21T06:36:51;4.00;99.90
12276;DHT22;6200;48.144;11.424;2024-02-21T06:39:16;4.00;99.90
12276;DHT22;6200;48.144;11.424;2024-02-21T06:41:42;4.10;99.90
12276;DHT22;6200;48.144;11.424;2024-02-21T06:44:08;4.10;99.90
12276;DHT22;6200;48.144;11.424;2024-02-21T06:46:33;4.20;99.90
12276;DHT22;6200;48.144;11.424;2024-02-21T06:49:00;4.30;99.90
12276;DHT22;6200;48.144;11.424;2024-02-21T06:51:26;4.30;99.90
12276;DHT22;6200;48.144;11.424;2024-02-21T06:53:53;4.30;99.90
12276;DHT22;6200;48.144;11.424;2024-02-21T06:56:19;4.40;99.90
12276;DHT22;6200;48.144;11.424;2024-02-21T06:58:44;4.50;99.90
12276;DHT22;6200;48.144;11.424;2024-02-21T07:01:10;4.50;99.90
12276;DHT22;6200;48.144;11.424;2024-02-21T07:03:36;4.50;99.90
12276;DHT22;6200;48.144;11.424;2024-02-21T07:06:02;4.50;99.90
12276;DHT22;6200;48.144;11.424;2024-02-21T07:08:27;4.50;99.90
12276;DHT22;6200;48.144;11.424;2024-02-21T07:10:53;4.50;99.90
12276;DHT22;6200;48.144;11.424;2024-02-21T07:13:18;4.50;99.90
12276;DHT22;6200;48.144;11.424;2024-02-21T07:15:44;4.50;99.90
12276;DHT22;6200;48.144;11.424;2024-02-21T07:18:09;4.60;99.90
12276;DHT22;6200;48.144;11.424;2024-02-21T07:20:35;4.70;99.90
12276;DHT22;6200;48.144;11.424;2024-02-21T07:23:03;4.70;99.90
12276;DHT22;6200;48.144;11.424;2024-02-21T07:25:28;4.70;99.90
12276;DHT22;6200;48.144;11.424;2024-02-21T07:27:54;4.80;99.90
12276;DHT22;6200;48.144;11.424;2024-02-21T07:30:19;4.80;99.90
12276;DHT22;6200;48.144;11.424;2024-02-21T07:32:45;4.90;99.90
12276;DHT22;6200;48.144;11.424;2024-02-21T07:35:10;4.90;99.90
12276;DHT22;6200;48.144;11.424;2024-02-21T07:37:37;5.00;99.90
12276;DHT22;6200;48.144;11.424;2024-02-21T07:40:05;5.00;99.90
12276;DHT22;6200;48.144;11.424;2024-02-21T07:42:31;5.10;99.90
12276;DHT22;6200;48.144;11.424;2024-02-21T07:44:56;5.10;99.90
12276;DHT22;6200;48.144;11.424;2024-02-21T07:47:22;5.10;99.90
12276;DHT22;6200;48.144;11.424;2024-02-21T07:49:48;5.10;99.90
12276;DHT22;6200;48.144;11.424;2024-02-21T07:52:14;5.10;99.90
12276;DHT22;6200;48.144;11.424;2024-02-21T07:54:41;5.20;99.90
12276;DHT22;6200;48.144;11.424;2024-02-21T07:57:07;5.20;99.90
12276;DHT22;6200;48.144;11.424;2024-02-21T07:59:33;5.30;99.90
12276;DHT22;6200;48.144;11.424;2024-02-21T08:01:58;5.40;99.90
12276;DHT22;6200;48.144;11.424;2024-02-21T08:04:24;5.40;99.90
12276;DHT22;6200;48.144;11.424;2024-02-21T08:06:56;5.50;99.90
12276;DHT22;6200;48.144;11.424;2024-02-21T08:09:24;5.50;99.90
12276;DHT22;6200;48.144;11.424;2024-02-21T08:11:50;5.70;99.90
12276;DHT22;6200;48.144;11.424;2024-02-21T08:14:15;5.70;99.90
12276;DHT22;6200;48.144;11.424;2024-02-21T08:16:42;5.90;99.90
12276;DHT22;6200;48.144;11.424;2024-02-21T08:19:07;6.00;99.90
12276;DHT22;6200;48.144;11.424;2024-02-21T08:21:33;6.10;99.90
12276;DHT22;6200;48.144;11.424;2024-02-21T08:23:59;6.30;99.90
12276;DHT22;6200;48.144;11.424;2024-02-21T08:26:24;6.40;99.90
12276;DHT22;6200;48.144;11.424;2024-02-21T08:28:52;6.60;99.90
12276;DHT22;6200;48.144;11.424;2024-02-21T08:31:19;6.80;99.90
12276;DHT22;6200;48.144;11.424;2024-02-21T08:33:45;7.00;99.90
12276;DHT22;6200;48.144;11.424;2024-02-21T08:36:18;7.30;99.90
12276;DHT22;6200;48.144;11.424;2024-02-21T08:38:44;7.50;99.90
12276;DHT22;6200;48.144;11.424;2024-02-21T08:41:10;7.80;99.90
12276;DHT22;6200;48.144;11.424;2024-02-21T08:43:35;8.00;99.90
12276;DHT22;6200;48.144;11.424;2024-02-21T08:46:01;8.20;99.90
12276;DHT22;6200;48.144;11.424;2024-02-21T08:48:27;8.30;99.90
12276;DHT22;6200;48.144;11.424;2024-02-21T08:50:52;8.50;99.90
12276;DHT22;6200;48.144;11.424;2024-02-21T08:53:19;8.80;99.90
12276;DHT22;6200;48.144;11.424;2024-02-21T08:55:45;9.00;99.90
12276;DHT22;6200;48.144;11.424;2024-02-21T08:58:11;9.30;99.90
12276;DHT22;6200;48.144;11.424;2024-02-21T09:00:36;9.60;99.90
12276;DHT22;6200;48.144;11.424;2024-02-21T09:03:02;9.80;99.90
12276;DHT22;6200;48.144;11.424;2024-02-21T09:05:28;10.00;99.90
12276;DHT22;6200;48.144;11.424;2024-02-21T09:07:54;10.20;99.90
12276;DHT22;6200;48.144;11.424;2024-02-21T09:10:20;10.40;99.90
12276;DHT22;6200;48.144;11.424;2024-02-21T09:12:46;10.60;99.90
12276;DHT22;6200;48.144;11.424;2024-02-21T09:15:13;10.70;99.90
12276;DHT22;6200;48.144;11.424;2024-02-21T09:17:38;10.90;99.90
12276;DHT22;6200;48.144;11.424;2024-02-21T09:20:05;11.10;99.90
12276;DHT22;6200;48.144;11.424;2024-02-21T09:22:31;11.30;99.90
12276;DHT22;6200;48.144;11.424;2024-02-21T09:25:00;11.50;99.90
12276;DHT22;6200;48.144;11.424;2024-02-21T09:27:25;11.70;99.90
12276;DHT22;6200;48.144;11.424;2024-02-21T09:29:51;11.90;99.90
12276;DHT22;6200;48.144;11.424;2024-02-21T09:32:17;12.00;99.90
12276;DHT22;6200;48.144;11.424;2024-02-21T09:34:44;12.20;99.30
12276;DHT22;6200;48.144;11.424;2024-02-21T09:37:10;12.20;98.40
12276;DHT22;6200;48.144;11.424;2024-02-21T09:39:36;12.20;97.10
12276;DHT22;6200;48.144;11.424;2024-02-21T09:42:05;12.30;97.50
12276;DHT22;6200;48.144;11.424;2024-02-21T09:44:36;12.50;97.40
12276;DHT22;6200;48.144;11.424;2024-02-21T09:47:03;12.70;97.50
12276;DHT22;6200;48.144;11.424;2024-02-21T09:49:30;12.90;96.90
12276;DHT22;6200;48.144;11.424;2024-02-21T09:52:04;13.20;96.70
12276;DHT22;6200;48.144;11.424;2024-02-21T09:54:30;13.30;94.90
12276;DHT22;6200;48.144;11.424;2024-02-21T09:56:59;13.40;95.00
12276;DHT22;6200;48.144;11.424;2024-02-21T09:59:27;13.50;95.40
12276;DHT22;6200;48.144;11.424;2024-02-21T10:01:53;13.70;94.20
12276;DHT22;6200;48.144;11.424;2024-02-21T10:04:20;13.70;93.60
12276;DHT22;6200;48.144;11.424;2024-02-21T10:06:46;13.80;93.20
12276;DHT22;6200;48.144;11.424;2024-02-21T10:09:24;13.90;92.50
12276;DHT22;6200;48.144;11.424;2024-02-21T10:11:50;14.00;90.30
12276;DHT22;6200;48.144;11.424;2024-02-21T10:14:16;14.00;93.10
12276;DHT22;6200;48.144;11.424;2024-02-21T10:16:44;14.10;94.30
12276;DHT22;6200;48.144;11.424;2024-02-21T10:19:19;14.20;92.60
12276;DHT22;6200;48.144;11.424;2024-02-21T10:22:02;14.30;90.30
12276;DHT22;6200;48.144;11.424;2024-02-21T10:24:29;14.40;90.10
12276;DHT22;6200;48.144;11.424;2024-02-21T10:27:06;14.30;88.40
12276;DHT22;6200;48.144;11.424;2024-02-21T10:29:34;14.40;86.00
12276;DHT22;6200;48.144;11.424;2024-02-21T10:32:13;14.40;85.00
12276;DHT22;6200;48.144;11.424;2024-02-21T10:34:40;14.60;84.40
12276;DHT22;6200;48.144;11.424;2024-02-21T10:37:08;14.70;84.10
12276;DHT22;6200;48.144;11.424;2024-02-21T10:39:36;14.50;83.50
12276;DHT22;6200;48.144;11.424;2024-02-21T10:42:03;14.60;85.40
12276;DHT22;6200;48.144;11.424;2024-02-21T10:44:30;14.60;83.80
12276;DHT22;6200;48.144;11.424;2024-02-21T10:46:57;14.70;83.20
12276;DHT22;6200;48.144;11.424;2024-02-21T10:49:24;14.80;81.20
12276;DHT22;6200;48.144;11.424;2024-02-21T10:52:14;14.90;80.40
12276;DHT22;6200;48.144;11.424;2024-02-21T10:55:03;15.20;83.80
12276;DHT22;6200;48.144;11.424;2024-02-21T10:57:29;15.30;79.40
12276;DHT22;6200;48.144;11.424;2024-02-21T10:59:58;15.40;79.50
12276;DHT22;6200;48.144;11.424;2024-02-21T11:02:25;15.50;79.00
12276;DHT22;6200;48.144;11.424;2024-02-21T11:04:52;15.60;79.70
12276;DHT22;6200;48.144;11.424;2024-02-21T11:07:19;15.60;77.70
12276;DHT22;6200;48.144;11.424;2024-02-21T11:09:52;15.70;76.70
12276;DHT22;6200;48.144;11.424;2024-02-21T11:12:21;15.90;75.60
12276;DHT22;6200;48.144;11.424;2024-02-21T11:14:46;15.80;75.70
12276;DHT22;6200;48.144;11.424;2024-02-21T11:19:41;15.80;71.80
12276;DHT22;6200;48.144;11.424;2024-02-21T11:22:14;15.80;72.10
12276;DHT22;6200;48.144;11.424;2024-02-21T11:24:42;15.80;72.00
12276;DHT22;6200;48.144;11.424;2024-02-21T11:27:15;15.80;73.20
12276;DHT22;6200;48.144;11.424;2024-02-21T11:29:56;15.80;74.70
12276;DHT22;6200;48.144;11.424;2024-02-21T11:32:23;15.90;73.70
12276;DHT22;6200;48.144;11.424;2024-02-21T11:35:08;15.80;70.20
12276;DHT22;6200;48.144;11.424;2024-02-21T11:37:34;15.80;71.50
12276;DHT22;6200;48.144;11.424;2024-02-21T11:40:03;15.70;68.80
12276;DHT22;6200;48.144;11.424;2024-02-21T11:42:29;15.70;68.60
12276;DHT22;6200;48.144;11.424;2024-02-21T11:44:56;15.50;69.20
12276;DHT22;6200;48.144;11.424;2024-02-21T11:47:22;15.50;69.10
12276;DHT22;6200;48.144;11.424;2024-02-21T11:49:48;15.40;73.70
12276;DHT22;6200;48.144;11.424;2024-02-21T11:52:16;15.30;72.00
12276;DHT22;6200;48.144;11.424;2024-02-21T11:54:42;15.40;69.70
12276;DHT22;6200;48.144;11.424;2024-02-21T11:57:08;15.50;71.30
12276;DHT22;6200;48.144;11.424;2024-02-21T11:59:34;15.50;67.90
12276;DHT22;6200;48.144;11.424;2024-02-21T12:02:03;15.70;67.30
12276;DHT22;6200;48.144;11.424;2024-02-21T12:04:29;15.80;69.60
12276;DHT22;6200;48.144;11.424;2024-02-21T12:06:57;16.00;66.70
12276;DHT22;6200;48.144;11.424;2024-02-21T12:09:23;16.00;67.70
12276;DHT22;6200;48.144;11.424;2024-02-21T12:12:03;16.10;67.70
12276;DHT22;6200;48.144;11.424;2024-02-21T12:14:29;16.10;67.60
12276;DHT22;6200;48.144;11.424;2024-02-21T12:17:02;16.10;68.00
12276;DHT22;6200;48.144;11.424;2024-02-21T12:19:31;16.20;64.60
12276;DHT22;6200;48.144;11.424;2024-02-21T12:21:58;16.30;70.80
12276;DHT22;6200;48.144;11.424;2024-02-21T12:24:25;16.40;67.20
12276;DHT22;6200;48.144;11.424;2024-02-21T12:26:51;16.50;65.20
12276;DHT22;6200;48.144;11.424;2024-02-21T12:29:18;16.50;64.50
12276;DHT22;6200;48.144;11.424;2024-02-21T12:31:44;16.50;64.60
12276;DHT22;6200;48.144;11.424;2024-02-21T12:34:10;16.40;66.80
12276;DHT22;6200;48.144;11.424;2024-02-21T12:36:45;16.40;63.70
12276;DHT22;6200;48.144;11.424;2024-02-21T12:39:14;16.40;65.20
12276;DHT22;6200;48.144;11.424;2024-02-21T12:41:40;16.40;64.10
12276;DHT22;6200;48.144;11.424;2024-02-21T12:44:09;16.50;66.90
12276;DHT22;6200;48.144;11.424;2024-02-21T12:46:37;16.50;65.10
12276;DHT22;6200;48.144;11.424;2024-02-21T12:49:03;16.40;63.30
12276;DHT22;6200;48.144;11.424;2024-02-21T12:51:30;16.30;62.20
12276;DHT22;6200;48.144;11.424;2024-02-21T12:53:56;16.20;65.20
12276;DHT22;6200;48.144;11.424;2024-02-21T12:56:22;16.10;62.90
12276;DHT22;6200;48.144;11.424;2024-02-21T12:58:47;16.00;63.50
12276;DHT22;6200;48.144;11.424;2024-02-21T13:01:13;16.00;67.20
12276;DHT22;6200;48.144;11.424;2024-02-21T13:03:39;15.90;67.70
12276;DHT22;6200;48.144;11.424;2024-02-21T13:06:05;15.80;62.80
12276;DHT22;6200;48.144;11.424;2024-02-21T13:08:32;15.80;65.90
12276;DHT22;6200;48.144;11.424;2024-02-21T13:10:59;15.80;65.70
12276;DHT22;6200;48.144;11.424;2024-02-21T13:13:25;15.80;62.60
12276;DHT22;6200;48.144;11.424;2024-02-21T13:15:50;15.80;65.90
12276;DHT22;6200;48.144;11.424;2024-02-21T13:18:16;15.80;66.10
12276;DHT22;6200;48.144;11.424;2024-02-21T13:20:41;15.80;64.90
12276;DHT22;6200;48.144;11.424;2024-02-21T13:23:07;15.90;63.70
12276;DHT22;6200;48.144;11.424;2024-02-21T13:25:32;15.80;62.40
12276;DHT22;6200;48.144;11.424;2024-02-21T13:27:58;15.40;62.80
12276;DHT22;6200;48.144;11.424;2024-02-21T13:30:23;15.20;63.10
12276;DHT22;6200;48.144;11.424;2024-02-21T13:32:50;15.10;65.90
12276;DHT22;6200;48.144;11.424;2024-02-21T13:35:16;15.20;67.00
12276;DHT22;6200;48.144;11.424;2024-02-21T13:37:41;15.20;69.60
12276;DHT22;6200;48.144;11.424;2024-02-21T13:40:08;15.20;65.80
12276;DHT22;6200;48.144;11.424;2024-02-21T13:42:39;15.20;68.80
12276;DHT22;6200;48.144;11.424;2024-02-21T13:45:06;15.30;66.40
12276;DHT22;6200;48.144;11.424;2024-02-21T13:47:35;15.40;65.00
12276;DHT22;6200;48.144;11.424;2024-02-21T13:50:07;15.40;68.50
12276;DHT22;6200;48.144;11.424;2024-02-21T13:52:37;15.40;65.90
12276;DHT22;6200;48.144;11.424;2024-02-21T13:55:03;15.40;67.90
12276;DHT22;6200;48.144;11.424;2024-02-21T13:57:29;15.40;63.90
12276;DHT22;6200;48.144;11.424;2024-02-21T13:59:54;15.30;64.50
12276;DHT22;6200;48.144;11.424;2024-02-21T14:02:20;15.30;66.60
12276;DHT22;6200;48.144;11.424;2024-02-21T14:04:46;15.20;65.90
12276;DHT22;6200;48.144;11.424;2024-02-21T14:07:12;15.10;65.50
12276;DHT22;6200;48.144;11.424;2024-02-21T14:09:37;15.10;65.00
12276;DHT22;6200;48.144;11.424;2024-02-21T14:12:03;15.00;64.80
12276;DHT22;6200;48.144;11.424;2024-02-21T14:14:34;14.90;63.50
12276;DHT22;6200;48.144;11.424;2024-02-21T14:16:59;14.90;66.40
12276;DHT22;6200;48.144;11.424;2024-02-21T14:19:25;14.90;66.40
12276;DHT22;6200;48.144;11.424;2024-02-21T14:21:51;14.90;67.50
12276;DHT22;6200;48.144;11.424;2024-02-21T14:24:16;14.90;68.10
12276;DHT22;6200;48.144;11.424;2024-02-21T14:26:42;15.00;68.80
12276;DHT22;6200;48.144;11.424;2024-02-21T14:29:07;15.00;68.90
12276;DHT22;6200;48.144;11.424;2024-02-21T14:31:33;15.00;69.90
12276;DHT22;6200;48.144;11.424;2024-02-21T14:33:58;15.00;67.00
12276;DHT22;6200;48.144;11.424;2024-02-21T14:36:25;15.00;70.90
12276;DHT22;6200;48.144;11.424;2024-02-21T14:38:51;14.90;67.30
12276;DHT22;6200;48.144;11.424;2024-02-21T14:41:18;15.00;69.40
12276;DHT22;6200;48.144;11.424;2024-02-21T14:43:43;14.90;68.60
12276;DHT22;6200;48.144;11.424;2024-02-21T14:46:09;14.90;71.00
12276;DHT22;6200;48.144;11.424;2024-02-21T14:48:34;14.80;68.70
12276;DHT22;6200;48.144;11.424;2024-02-21T14:51:01;14.80;69.10
12276;DHT22;6200;48.144;11.424;2024-02-21T14:53:27;14.70;74.00
12276;DHT22;6200;48.144;11.424;2024-02-21T14:55:52;14.70;72.80
12276;DHT22;6200;48.144;11.424;2024-02-21T14:58:18;14.60;70.00
12276;DHT22;6200;48.144;11.424;2024-02-21T15:00:45;14.60;73.80
12276;DHT22;6200;48.144;11.424;2024-02-21T15:03:12;14.60;72.80
12276;DHT22;6200;48.144;11.424;2024-02-21T15:05:41;14.50;71.30
12276;DHT22;6200;48.144;11.424;2024-02-21T15:08:06;14.50;70.30
12276;DHT22;6200;48.144;11.424;2024-02-21T15:10:34;14.40;72.40
12276;DHT22;6200;48.144;11.424;2024-02-21T15:13:00;14.40;73.30
12276;DHT22;6200;48.144;11.424;2024-02-21T15:15:25;14.40;72.00
12276;DHT22;6200;48.144;11.424;2024-02-21T15:17:51;14.30;73.40
12276;DHT22;6200;48.144;11.424;2024-02-21T15:20:16;14.20;79.90
12276;DHT22;6200;48.144;11.424;2024-02-21T15:22:42;14.10;76.10
12276;DHT22;6200;48.144;11.424;2024-02-21T15:25:08;14.10;78.60
12276;DHT22;6200;48.144;11.424;2024-02-21T15:27:42;14.10;80.30
12276;DHT22;6200;48.144;11.424;2024-02-21T15:30:09;14.00;76.80
12276;DHT22;6200;48.144;11.424;2024-02-21T15:32:35;13.90;77.70
12276;DHT22;6200;48.144;11.424;2024-02-21T15:35:03;13.80;78.50
12276;DHT22;6200;48.144;11.424;2024-02-21T15:37:29;13.80;76.60